Ana Sayfa
METAR-TAF:

METAR-TAF

Havaalanları :

Longyearbyen, Norveç

Enlem: 78-15N, Boylam: 015-28E, yükseklik: 2 m

Güncel hava durumu gözlemi

Rapor saat 21:50 UTC de 49 dakika önce yapıldı.
Rüzgar batı/kuzeybatıdan 9 kt
Sıcaklık -6°C
Nem 62%
Basınç 1009 hPa
Görüş mesafesi 10 km veya daha fazla
2900 ft yükseklikte az bulutlu

METAR: ENSB 122150Z 30009KT 9999 FEW029 M06/M12 Q1009 RMK WIND 1400FT 29007KT

Saat: 23:39 (22:39 UTC)

Tahmin

Ayın 12'si saat 18 UTC'den ayın 13'si saat 18 UTC'ye kadar geçerli Tahmin
Rüzgar batıdan 18 kt
Görüş mesafesi 10 km veya daha fazla
1000 ft yükseklikte az bulutlu
4000 ft yükseklikte parçalı bulutlu
Geçici
ayın 12'si saat 18 UTC'den ayın 13'si saat 02 UTC'ye kadar
Rüzgar kuzeydan 12 kt
Dönüşüyor
ayın 13'si saat 02 UTC'den ayın 13'si saat 04 UTC'ye kadar
Rüzgar doğu/güneydoğudan 8 kt

TAF: ENSB 1218/1318 26018KT 9999 FEW010 SCT040 TEMPO 1218/1302 35012KT BECMG 1302/1304 12008KT

4.000'den fazla havaalanı için hava durumu gözlemleri ve tahminleri (METAR ve TAF raporları).

Kullanılabilir istasyonlar harita üzerinde sarı ve kırmızı noktalarla gösterilir.

İstasyonun adını görmek için fareyi noktanın üzerinde gezdirin.

Sonrasında hava gözlem ve tahminlerini görmek için tıklayın.

Haritayı değiştirmek için: yaklaştırmak için siyah artı işaretli yeşil düğmeye ve uzaklaştırmak için de eksi işaretli düğmeye hızla tıklayın; bitişik haritalar için yeşil okları kullanın.


METAR-TAF: